< Typhoon 198203 1982 Season Typhoon 198205 >
Typhoon 198204 (PAT)
General InformationTrack Information on Google MapsDetailed Wind InformationList of All Images || Disaster Info.ResourceGoogle EarthGE AnimationAtom FeedGeoJSON
Detalied Best Track (Time Zone = UTC)
Year Month Day Hour Lat. Long. Pressure (hPa) Wind (kt) Class Image Chart
1982 5 16 00 8.0 138.0 1008 0 2 Image Chart
1982 5 16 06 9.0 137.5 1006 0 2 Image Chart
1982 5 16 12 10.0 137.0 1006 0 2 Image Chart
1982 5 16 18 11.0 136.0 1006 0 2 Image Chart
1982 5 17 00 11.5 134.7 1004 0 2 Image Chart
1982 5 17 06 11.3 133.1 1004 0 2 Image Chart
1982 5 17 12 10.8 131.8 1002 0 2 Image Chart
1982 5 17 18 10.8 130.2 1000 0 2 Image Chart
1982 5 18 00 11.0 128.6 998 35 3 Image Chart
1982 5 18 06 11.7 127.8 992 40 3 Image Chart
1982 5 18 12 12.5 127.1 990 40 3 Image Chart
1982 5 18 18 13.5 126.4 985 45 3 Image Chart
1982 5 19 00 14.4 125.6 980 45 3 Image Chart
1982 5 19 06 15.4 124.8 975 55 4 Image Chart
1982 5 19 12 16.3 124.3 965 65 5 Image Chart
1982 5 19 18 17.0 124.1 955 70 5 Image Chart
1982 5 20 00 17.7 124.1 945 80 5 Image Chart
1982 5 20 06 18.6 124.7 945 90 5 Image Chart
1982 5 20 12 19.3 125.2 945 90 5 Image Chart
1982 5 20 18 19.8 125.8 945 90 5 Image Chart
1982 5 21 00 20.3 126.9 945 90 5 Image Chart
1982 5 21 06 21.1 127.9 945 90 5 Image Chart
1982 5 21 12 21.8 129.4 955 80 5 Image Chart
1982 5 21 18 22.6 131.2 965 80 5 Image Chart
1982 5 22 00 23.5 133.2 970 70 5 Image Chart
1982 5 22 06 24.5 135.4 975 65 5 Image Chart
1982 5 22 12 25.3 137.7 980 60 4 Image Chart
1982 5 22 18 26.5 140.5 985 55 4 Image Chart
1982 5 23 00 28.0 143.5 992 40 3 Image Chart
1982 5 23 06 29.2 146.6 996 0 6 Image Chart
1982 5 23 12 30.5 149.7 1002 0 6 Image Chart
1982 5 23 18 31.7 152.8 1006 0 6 Image Chart
1982 5 24 00 33.0 156.0 1012 0 6 Image Chart
1982 5 24 06 34.0 159.5 1012 0 6 Image Chart
Japan Meteorological Agency Best Track Data | Correction Date : 1992-10-21
< Typhoon 198203 1982 Season Typhoon 198205 >

Help